Terminal Aerodrome Forecast
Issued by NWS

Home | Current Version | Previous Version | Text Only | Print | Product List | Glossary On
Versions: 1 2 3 4 5 6 7 8 9 10 11 12 13
000
FTUS43 KLSX 282035 AAA
TAFUIN
TAF AMD
KUIN 282035Z 2821/2918 18020G30KT 4SM -TSRA BKN025CB BKN050
     FM282105 21015KT P6SM VCTS SCT025 BKN050CB
     FM290000 23005KT P6SM FEW050 SCT250
     FM291400 28009KT P6SM FEW050 SCT250=

USA.gov is the U.S. government's official web portal to all federal, state and local government web resources and services.